createdAt,value
2023-11-28T00:00:35.764Z,15.30
2023-11-28T00:03:02.839Z,15.30
2023-11-28T00:05:29.945Z,15.33
2023-11-28T00:07:57.258Z,15.19
2023-11-28T00:10:24.431Z,14.95
2023-11-28T00:12:51.421Z,15.11
2023-11-28T00:15:18.519Z,15.13
2023-11-28T00:17:46.982Z,15.18
2023-11-28T00:20:14.010Z,15.31
2023-11-28T00:22:41.023Z,15.37
2023-11-28T00:25:08.777Z,15.51
2023-11-28T00:27:35.885Z,15.36
2023-11-28T00:30:03.271Z,15.31
2023-11-28T00:32:30.357Z,15.17
2023-11-28T00:34:58.914Z,15.28
2023-11-28T00:37:26.085Z,15.36
2023-11-28T00:39:53.086Z,15.33
2023-11-28T00:42:20.155Z,15.34
2023-11-28T00:44:47.118Z,15.20
2023-11-28T00:47:14.249Z,15.27
2023-11-28T00:49:41.958Z,15.08
2023-11-28T00:52:11.039Z,15.23
2023-11-28T00:54:38.121Z,15.24
2023-11-28T00:57:05.621Z,15.29
2023-11-28T00:59:32.618Z,15.25
2023-11-28T01:01:59.684Z,15.28
2023-11-28T01:04:26.829Z,15.19
2023-11-28T01:06:53.869Z,14.85
2023-11-28T01:09:22.358Z,15.11
2023-11-28T01:11:49.585Z,15.03
2023-11-28T01:14:16.599Z,15.15
2023-11-28T01:16:45.680Z,15.25
2023-11-28T01:19:13.250Z,15.46
2023-11-28T01:21:40.455Z,15.44
2023-11-28T01:24:07.523Z,15.43
2023-11-28T01:26:36.069Z,15.52
2023-11-28T01:29:03.109Z,15.56
2023-11-28T01:31:30.264Z,15.51
2023-11-28T01:33:57.338Z,15.59
2023-11-28T01:36:24.354Z,15.61
2023-11-28T01:38:51.317Z,15.71
2023-11-28T01:41:18.398Z,15.75
2023-11-28T01:43:47.039Z,15.60
2023-11-28T01:46:14.924Z,15.59
2023-11-28T01:48:42.223Z,15.46
2023-11-28T01:51:10.224Z,15.42
2023-11-28T01:53:38.001Z,15.51
2023-11-28T01:56:06.853Z,15.36
2023-11-28T01:58:34.096Z,15.42
2023-11-28T02:01:02.948Z,14.57
2023-11-28T02:03:30.668Z,15.13
2023-11-28T02:05:58.536Z,15.35
2023-11-28T02:08:25.654Z,15.22
2023-11-28T02:10:52.947Z,15.29
2023-11-28T02:13:20.071Z,15.52
2023-11-28T02:15:47.951Z,15.56
2023-11-28T02:18:16.384Z,15.67
2023-11-28T02:20:43.554Z,15.74
2023-11-28T02:23:10.743Z,15.81
2023-11-28T02:25:46.848Z,15.87
2023-11-28T02:28:18.696Z,15.88
2023-11-28T02:30:49.751Z,15.73
2023-11-28T02:33:17.218Z,15.37
2023-11-28T02:35:44.412Z,15.72
2023-11-28T02:38:12.822Z,15.78
2023-11-28T02:40:40.006Z,15.82
2023-11-28T02:43:07.663Z,15.87
2023-11-28T02:45:36.396Z,15.86
2023-11-28T02:48:03.953Z,16.02
2023-11-28T02:50:30.944Z,15.89
2023-11-28T02:52:58.006Z,15.96
2023-11-28T02:55:25.025Z,15.94
2023-11-28T02:57:52.000Z,15.91
2023-11-28T03:00:19.326Z,15.82
2023-11-28T03:02:47.914Z,15.97
2023-11-28T03:05:14.997Z,15.63
2023-11-28T03:07:42.011Z,15.55
2023-11-28T03:10:09.828Z,15.75
2023-11-28T03:12:37.192Z,15.67
2023-11-28T03:15:04.942Z,15.50
2023-11-28T03:17:32.025Z,15.15
2023-11-28T03:20:00.535Z,15.35
2023-11-28T03:22:27.682Z,15.37
2023-11-28T03:24:54.777Z,14.80
2023-11-28T03:27:21.902Z,15.16
2023-11-28T03:29:48.938Z,15.35
2023-11-28T03:32:16.079Z,15.46
2023-11-28T03:34:43.140Z,15.58
2023-11-28T03:37:11.741Z,15.32
2023-11-28T03:39:42.541Z,15.40
2023-11-28T03:42:09.613Z,15.18
2023-11-28T03:44:37.670Z,15.19
2023-11-28T03:47:05.259Z,15.42
2023-11-28T03:49:32.327Z,15.50
2023-11-28T03:51:59.440Z,15.32
2023-11-28T03:54:27.786Z,15.26
2023-11-28T03:56:54.843Z,15.36
2023-11-28T03:59:21.918Z,15.55
2023-11-28T04:01:49.104Z,15.64
2023-11-28T04:04:16.245Z,15.74
2023-11-28T04:06:43.423Z,15.59
2023-11-28T04:09:10.454Z,15.59
2023-11-28T04:11:39.006Z,15.76
2023-11-28T04:14:06.010Z,15.77
2023-11-28T04:16:33.045Z,15.64
2023-11-28T04:19:00.073Z,15.58
2023-11-28T04:21:27.283Z,15.68
2023-11-28T04:23:54.285Z,15.69
2023-11-28T04:26:21.339Z,15.51
2023-11-28T04:28:49.791Z,15.56
2023-11-28T04:31:18.562Z,15.69
2023-11-28T04:33:45.756Z,15.73
2023-11-28T04:36:13.515Z,15.50
2023-11-28T04:38:40.486Z,15.61
2023-11-28T04:41:09.092Z,15.62
2023-11-28T04:43:36.135Z,15.57
2023-11-28T04:46:05.125Z,15.36
2023-11-28T04:48:32.217Z,15.59
2023-11-28T04:50:59.355Z,15.70
2023-11-28T04:53:27.507Z,15.69
2023-11-28T04:55:54.568Z,15.65
2023-11-28T04:58:21.744Z,15.59
2023-11-28T05:00:49.106Z,15.39
2023-11-28T05:03:17.874Z,15.52
2023-11-28T05:05:45.037Z,15.62
2023-11-28T05:08:12.408Z,15.68
2023-11-28T05:10:39.516Z,15.74
2023-11-28T05:13:06.456Z,15.62
2023-11-28T05:15:33.509Z,15.37
2023-11-28T05:18:00.695Z,15.23
2023-11-28T05:20:29.156Z,15.28
2023-11-28T05:22:56.180Z,15.35
2023-11-28T05:25:23.346Z,15.07
2023-11-28T05:27:50.368Z,15.17
2023-11-28T05:30:17.569Z,15.20
2023-11-28T05:32:44.591Z,15.20
2023-11-28T05:35:11.659Z,15.43
2023-11-28T05:37:40.084Z,15.34
2023-11-28T05:40:10.705Z,15.40
2023-11-28T05:42:38.153Z,15.52
2023-11-28T05:45:06.483Z,15.49
2023-11-28T05:47:33.660Z,15.50
2023-11-28T05:50:00.884Z,15.49
2023-11-28T05:52:27.910Z,15.51
2023-11-28T05:54:56.572Z,15.34
2023-11-28T05:57:23.554Z,15.28
2023-11-28T05:59:50.545Z,15.18
2023-11-28T06:02:17.684Z,14.99
2023-11-28T06:04:44.716Z,14.81
2023-11-28T06:07:11.915Z,14.58
2023-11-28T06:09:38.901Z,14.38
2023-11-28T06:12:08.082Z,14.47
2023-11-28T06:14:35.283Z,14.26
2023-11-28T06:17:02.339Z,14.29
2023-11-28T06:19:29.634Z,14.06
2023-11-28T06:21:56.793Z,14.31
2023-11-28T06:24:23.832Z,14.33
2023-11-28T06:26:50.851Z,14.37
2023-11-28T06:29:19.321Z,14.58
2023-11-28T06:31:46.453Z,14.50
2023-11-28T06:34:13.582Z,13.88
2023-11-28T06:36:40.587Z,13.86
2023-11-28T06:39:07.561Z,13.96
2023-11-28T06:41:34.717Z,13.84
2023-11-28T06:44:03.759Z,13.87
2023-11-28T06:46:33.114Z,13.89
2023-11-28T06:49:00.365Z,13.62
2023-11-28T06:51:27.483Z,13.77
2023-11-28T06:53:54.442Z,13.83
2023-11-28T06:56:21.450Z,13.84
2023-11-28T06:58:48.562Z,13.90
2023-11-28T07:01:15.568Z,13.94
2023-11-28T07:03:44.089Z,13.80
2023-11-28T07:06:11.778Z,13.90
2023-11-28T07:08:38.854Z,13.83
2023-11-28T07:11:06.638Z,13.93
2023-11-28T07:13:35.931Z,13.96
2023-11-28T07:16:02.937Z,14.01
2023-11-28T07:18:29.995Z,13.76
2023-11-28T07:20:58.621Z,13.96
2023-11-28T07:23:25.670Z,13.96
2023-11-28T07:25:52.792Z,13.94
2023-11-28T07:28:19.791Z,14.00
2023-11-28T07:30:46.861Z,14.02
2023-11-28T07:33:13.962Z,13.99
2023-11-28T07:35:41.109Z,14.02
2023-11-28T07:38:09.595Z,14.02
2023-11-28T07:40:36.729Z,13.89
2023-11-28T07:43:03.832Z,13.86
2023-11-28T07:45:30.933Z,13.94
2023-11-28T07:47:58.490Z,13.94
2023-11-28T07:50:25.651Z,13.82
2023-11-28T07:52:52.968Z,13.89
2023-11-28T07:55:21.605Z,13.81
2023-11-28T07:57:48.620Z,13.65
2023-11-28T08:00:16.360Z,13.67
2023-11-28T08:02:43.623Z,13.77
2023-11-28T08:05:13.200Z,13.76
2023-11-28T08:07:42.182Z,13.83
2023-11-28T08:10:10.221Z,13.76
2023-11-28T08:12:38.668Z,13.76
2023-11-28T08:15:07.102Z,13.82
2023-11-28T08:17:34.445Z,13.85
2023-11-28T08:20:01.534Z,13.85
2023-11-28T08:22:28.745Z,13.82
2023-11-28T08:24:55.720Z,13.83
2023-11-28T08:27:22.810Z,13.81
2023-11-28T08:29:51.426Z,13.84
2023-11-28T08:32:18.436Z,13.74
2023-11-28T08:34:45.553Z,13.83
2023-11-28T08:37:12.878Z,13.82
2023-11-28T08:39:40.131Z,13.76
2023-11-28T08:42:07.290Z,13.77
2023-11-28T08:44:34.990Z,13.25
2023-11-28T08:47:03.685Z,13.61
2023-11-28T08:49:30.906Z,13.67
2023-11-28T08:51:59.498Z,13.63
2023-11-28T08:54:26.718Z,13.68
2023-11-28T08:56:53.770Z,13.80
2023-11-28T08:59:20.952Z,13.75
2023-11-28T09:01:48.150Z,13.88
2023-11-28T09:04:16.613Z,13.93
2023-11-28T09:06:43.703Z,13.79
2023-11-28T09:09:10.979Z,13.78
2023-11-28T09:11:38.073Z,14.00
2023-11-28T09:14:05.194Z,14.04
2023-11-28T09:16:32.414Z,13.93
2023-11-28T09:18:59.528Z,13.83
2023-11-28T09:21:27.894Z,14.03
2023-11-28T09:23:54.950Z,13.81
2023-11-28T09:26:22.022Z,13.96
2023-11-28T09:28:49.103Z,13.83
2023-11-28T09:31:16.176Z,14.22
2023-11-28T09:33:43.220Z,14.23
2023-11-28T09:36:11.106Z,14.13
2023-11-28T09:38:39.670Z,14.07
2023-11-28T09:41:08.757Z,14.07
2023-11-28T09:43:37.043Z,14.10
2023-11-28T09:46:09.348Z,14.35
2023-11-28T09:48:42.274Z,14.43
2023-11-28T09:51:11.485Z,14.12
2023-11-28T09:53:42.833Z,14.22
2023-11-28T09:56:11.798Z,14.19
2023-11-28T09:58:41.378Z,14.02
2023-11-28T10:01:12.373Z,13.93
2023-11-28T10:03:39.850Z,13.55
2023-11-28T10:06:13.312Z,13.85
2023-11-28T10:08:46.567Z,13.87
2023-11-28T10:11:15.392Z,13.82
2023-11-28T10:13:42.537Z,13.83
2023-11-28T10:16:10.013Z,13.90
2023-11-28T10:18:37.165Z,13.89
2023-11-28T10:21:04.480Z,13.68
2023-11-28T10:23:31.497Z,13.80
2023-11-28T10:26:00.547Z,13.81
2023-11-28T10:28:27.583Z,13.33
2023-11-28T10:30:54.852Z,13.62
2023-11-28T10:33:21.912Z,13.41
2023-11-28T10:35:48.979Z,13.56
2023-11-28T10:38:17.909Z,13.67
2023-11-28T10:40:47.961Z,13.64
2023-11-28T10:43:17.054Z,13.64
2023-11-28T10:45:45.902Z,13.63
2023-11-28T10:48:14.139Z,13.58
2023-11-28T10:50:41.641Z,13.64
2023-11-28T10:53:12.942Z,13.74
2023-11-28T10:55:43.689Z,13.66
2023-11-28T10:58:14.353Z,13.54
2023-11-28T11:00:45.382Z,13.65
2023-11-28T11:03:14.624Z,13.79
2023-11-28T11:05:43.660Z,13.78
2023-11-28T11:08:11.693Z,13.94
2023-11-28T11:10:39.820Z,14.00
2023-11-28T11:13:22.739Z,14.05
2023-11-28T11:16:06.711Z,14.11
2023-11-28T11:18:39.040Z,14.13
2023-11-28T11:21:16.514Z,14.13
2023-11-28T11:23:48.110Z,14.06
2023-11-28T11:26:15.095Z,14.17
2023-11-28T11:28:42.532Z,14.07
2023-11-28T11:31:12.458Z,14.24
2023-11-28T11:33:39.581Z,14.27
2023-11-28T11:36:08.153Z,14.26
2023-11-28T11:38:36.414Z,14.17
2023-11-28T11:41:05.525Z,14.24
2023-11-28T11:43:37.274Z,14.31
2023-11-28T11:46:08.844Z,14.01
2023-11-28T11:48:38.468Z,13.97
2023-11-28T11:51:06.098Z,13.89
2023-11-28T11:53:33.916Z,13.84
2023-11-28T11:56:01.767Z,13.93
2023-11-28T11:58:29.645Z,13.65
2023-11-28T12:00:57.034Z,13.38
2023-11-28T12:03:25.410Z,12.52
2023-11-28T12:05:55.396Z,13.25
2023-11-28T12:08:24.316Z,13.48
2023-11-28T12:11:02.471Z,13.49
2023-11-28T12:13:30.624Z,13.60
2023-11-28T12:16:01.968Z,13.52
2023-11-28T12:18:29.148Z,13.57
2023-11-28T12:20:59.088Z,13.54
2023-11-28T12:23:26.360Z,13.52
2023-11-28T12:25:55.733Z,13.55
2023-11-28T12:28:23.097Z,13.57
2023-11-28T12:30:51.234Z,13.62
2023-11-28T12:33:18.483Z,13.75
2023-11-28T12:35:46.941Z,13.78
2023-11-28T12:38:15.520Z,13.72
2023-11-28T12:40:45.389Z,13.78
2023-11-28T12:43:20.806Z,13.76
2023-11-28T12:45:48.592Z,13.76
2023-11-28T12:48:16.580Z,13.72
2023-11-28T12:50:43.945Z,13.84
2023-11-28T12:53:20.167Z,13.86
2023-11-28T12:55:47.595Z,13.93
2023-11-28T12:58:15.170Z,13.94
2023-11-28T13:00:42.385Z,14.01
2023-11-28T13:03:09.624Z,14.01
2023-11-28T13:05:36.921Z,14.10
2023-11-28T13:08:04.086Z,14.10
2023-11-28T13:10:34.124Z,14.04
2023-11-28T13:13:11.596Z,14.13
2023-11-28T13:15:41.959Z,14.08
2023-11-28T13:18:09.290Z,14.17
2023-11-28T13:20:36.382Z,14.26
2023-11-28T13:23:03.431Z,14.41
2023-11-28T13:25:32.018Z,14.59
2023-11-28T13:27:59.198Z,14.68
2023-11-28T13:30:26.374Z,14.82
2023-11-28T13:32:53.364Z,14.84
2023-11-28T13:35:22.330Z,14.82
2023-11-28T13:37:49.836Z,14.84
2023-11-28T13:40:16.779Z,14.78
2023-11-28T13:42:45.336Z,14.65
2023-11-28T13:45:12.441Z,14.76
2023-11-28T13:47:39.785Z,14.56
2023-11-28T13:50:07.542Z,14.71
2023-11-28T13:52:34.580Z,14.78
2023-11-28T13:55:01.692Z,14.72
2023-11-28T13:57:28.697Z,14.69
2023-11-28T13:59:57.194Z,14.66
2023-11-28T14:02:35.072Z,14.66
2023-11-28T14:05:11.042Z,14.66
2023-11-28T14:07:39.023Z,14.65
2023-11-28T14:10:07.695Z,14.58
2023-11-28T14:12:34.851Z,14.63
2023-11-28T14:15:03.425Z,14.60
2023-11-28T14:17:30.645Z,14.40
2023-11-28T14:19:57.764Z,14.23
2023-11-28T14:22:24.845Z,14.19
2023-11-28T14:24:51.970Z,14.13
2023-11-28T14:27:19.187Z,13.90
2023-11-28T14:29:46.214Z,13.62
2023-11-28T14:32:14.748Z,13.67
2023-11-28T14:34:41.931Z,13.68
2023-11-28T14:37:09.388Z,13.66
2023-11-28T14:39:36.445Z,13.76
2023-11-28T14:42:03.554Z,13.84
2023-11-28T14:44:30.734Z,13.74
2023-11-28T14:46:57.803Z,13.67
2023-11-28T14:49:26.238Z,13.64
2023-11-28T14:51:53.246Z,13.58
2023-11-28T14:54:20.311Z,13.55
2023-11-28T14:56:47.557Z,13.47
2023-11-28T14:59:15.072Z,13.25
2023-11-28T15:01:42.523Z,13.32
2023-11-28T15:04:09.600Z,13.34
2023-11-28T15:06:38.157Z,13.29
2023-11-28T15:09:05.134Z,13.34
2023-11-28T15:11:32.272Z,13.13
2023-11-28T15:13:59.484Z,12.78
2023-11-28T15:16:26.596Z,13.12
2023-11-28T15:18:53.753Z,13.13
2023-11-28T15:21:21.267Z,12.85
2023-11-28T15:23:49.762Z,12.84
2023-11-28T15:26:17.075Z,12.45
2023-11-28T15:28:44.356Z,12.71
2023-11-28T15:31:13.540Z,12.79
2023-11-28T15:33:40.737Z,12.62
2023-11-28T15:36:08.694Z,12.40
2023-11-28T15:38:35.943Z,12.64
2023-11-28T15:41:04.570Z,12.26
2023-11-28T15:43:31.723Z,12.28
2023-11-28T15:45:58.880Z,12.39
2023-11-28T15:48:25.876Z,12.21
2023-11-28T15:50:53.054Z,12.24
2023-11-28T15:53:20.234Z,12.15
2023-11-28T15:55:47.513Z,12.25
2023-11-28T15:58:15.990Z,12.25
2023-11-28T16:00:42.987Z,11.93
2023-11-28T16:03:10.218Z,11.76
2023-11-28T16:05:37.559Z,11.70
2023-11-28T16:08:05.262Z,11.92
2023-11-28T16:10:32.440Z,11.95
2023-11-28T16:13:00.133Z,11.94
2023-11-28T16:15:28.879Z,12.04
2023-11-28T16:17:56.104Z,11.97
2023-11-28T16:20:23.172Z,12.09
2023-11-28T16:22:50.320Z,11.98
2023-11-28T16:25:17.390Z,12.04
2023-11-28T16:27:44.527Z,12.13
2023-11-28T16:30:12.596Z,11.89
2023-11-28T16:32:41.364Z,11.77
2023-11-28T16:35:09.177Z,12.03
2023-11-28T16:37:36.305Z,12.06
2023-11-28T16:40:03.682Z,11.98
2023-11-28T16:42:30.707Z,12.04
2023-11-28T16:44:57.726Z,12.01
2023-11-28T16:47:24.925Z,12.05
2023-11-28T16:49:53.547Z,12.10
2023-11-28T16:52:20.685Z,12.10
2023-11-28T16:54:47.771Z,12.15
2023-11-28T16:57:14.897Z,12.10
2023-11-28T16:59:41.917Z,12.14
2023-11-28T17:02:09.731Z,12.15
2023-11-28T17:04:36.896Z,12.13
2023-11-28T17:07:05.511Z,12.11
2023-11-28T17:09:32.563Z,12.02
2023-11-28T17:11:59.602Z,11.95
2023-11-28T17:14:26.737Z,11.90
2023-11-28T17:16:53.925Z,11.92
2023-11-28T17:19:21.008Z,11.94
2023-11-28T17:21:48.059Z,11.90
2023-11-28T17:24:16.623Z,11.87
2023-11-28T17:26:44.622Z,11.92
2023-11-28T17:29:11.707Z,11.78
2023-11-28T17:31:38.986Z,11.79
2023-11-28T17:34:06.051Z,11.85
2023-11-28T17:36:33.065Z,11.86
2023-11-28T17:39:00.195Z,11.81
2023-11-28T17:41:28.804Z,11.70
2023-11-28T17:43:55.894Z,11.72
2023-11-28T17:46:23.012Z,11.74
2023-11-28T17:48:50.043Z,11.81
2023-11-28T17:51:21.136Z,11.77
2023-11-28T17:53:48.295Z,11.86
2023-11-28T17:56:15.929Z,11.87
2023-11-28T17:58:44.534Z,11.86
2023-11-28T18:01:11.684Z,11.82
2023-11-28T18:03:38.858Z,11.76
2023-11-28T18:06:06.409Z,11.76
2023-11-28T18:08:33.462Z,11.81
2023-11-28T18:11:00.728Z,11.78
2023-11-28T18:13:28.153Z,11.77
2023-11-28T18:15:56.727Z,11.79
2023-11-28T18:18:24.111Z,11.81
2023-11-28T18:20:51.223Z,11.74
2023-11-28T18:23:18.365Z,12.23
2023-11-28T18:25:45.405Z,12.09
2023-11-28T18:28:12.593Z,11.98
2023-11-28T18:30:39.670Z,12.00
2023-11-28T18:33:08.159Z,11.96
2023-11-28T18:35:35.381Z,11.93
2023-11-28T18:38:02.586Z,11.81
2023-11-28T18:40:29.700Z,11.83
2023-11-28T18:42:56.754Z,11.81
2023-11-28T18:45:23.973Z,11.80
2023-11-28T18:47:51.055Z,12.72
2023-11-28T18:50:19.693Z,12.61
2023-11-28T18:52:46.720Z,12.41
2023-11-28T18:55:14.208Z,12.40
2023-11-28T18:57:41.430Z,12.22
2023-11-28T19:00:09.370Z,12.09
2023-11-28T19:02:36.527Z,11.97
2023-11-28T19:05:04.081Z,11.86
2023-11-28T19:07:33.090Z,11.79
2023-11-28T19:10:00.018Z,11.72
2023-11-28T19:12:27.000Z,11.71
2023-11-28T19:14:54.132Z,11.69
2023-11-28T19:17:21.317Z,11.72
2023-11-28T19:19:48.660Z,11.68
2023-11-28T19:22:15.815Z,11.61
2023-11-28T19:24:44.230Z,11.59
2023-11-28T19:27:11.328Z,11.56
2023-11-28T19:29:38.786Z,11.55
2023-11-28T19:32:07.171Z,11.50
2023-11-28T19:34:34.270Z,11.49
2023-11-28T19:37:01.362Z,11.42
2023-11-28T19:39:28.365Z,11.42
2023-11-28T19:41:56.730Z,11.41
2023-11-28T19:44:23.850Z,11.30
2023-11-28T19:46:51.209Z,11.25
2023-11-28T19:49:18.328Z,11.15
2023-11-28T19:51:45.832Z,11.12
2023-11-28T19:54:12.922Z,11.07
2023-11-28T19:56:42.644Z,11.06
2023-11-28T19:59:11.333Z,11.04
2023-11-28T20:01:38.630Z,11.07
2023-11-28T20:04:05.936Z,11.04
2023-11-28T20:06:33.031Z,10.97
2023-11-28T20:09:00.234Z,11.01
2023-11-28T20:11:27.243Z,10.88
2023-11-28T20:13:54.342Z,10.85
2023-11-28T20:16:22.875Z,10.86
2023-11-28T20:18:49.887Z,10.82
2023-11-28T20:21:16.999Z,10.80
2023-11-28T20:23:44.189Z,10.77
2023-11-28T20:26:11.403Z,10.77
2023-11-28T20:28:38.826Z,10.73
2023-11-28T20:31:06.157Z,10.73
2023-11-28T20:33:34.790Z,10.71
2023-11-28T20:36:01.801Z,10.72
2023-11-28T20:38:29.068Z,10.63
2023-11-28T20:40:56.076Z,10.61
2023-11-28T20:43:23.119Z,10.63
2023-11-28T20:45:50.287Z,10.57
2023-11-28T20:48:17.603Z,10.50
2023-11-28T20:50:46.502Z,10.46
2023-11-28T20:53:13.699Z,10.36
2023-11-28T20:55:40.964Z,10.33
2023-11-28T20:58:08.051Z,10.43
2023-11-28T21:00:35.113Z,10.44
2023-11-28T21:03:02.460Z,10.44
2023-11-28T21:05:29.584Z,10.43
2023-11-28T21:07:58.472Z,10.38
2023-11-28T21:10:25.420Z,10.39
2023-11-28T21:12:52.477Z,10.38
2023-11-28T21:15:19.614Z,10.36
2023-11-28T21:17:46.795Z,10.33
2023-11-28T21:20:14.029Z,10.28
2023-11-28T21:22:41.008Z,10.22
2023-11-28T21:25:09.921Z,10.21
2023-11-28T21:27:36.842Z,10.18
2023-11-28T21:30:04.857Z,10.14
2023-11-28T21:32:31.938Z,10.14
2023-11-28T21:34:59.377Z,10.17
2023-11-28T21:37:26.497Z,10.17
2023-11-28T21:39:53.595Z,10.16
2023-11-28T21:42:22.256Z,10.11
2023-11-28T21:44:49.328Z,10.13
2023-11-28T21:47:16.575Z,10.15
2023-11-28T21:49:43.628Z,10.18
2023-11-28T21:52:10.967Z,10.16
2023-11-28T21:54:38.377Z,10.13
2023-11-28T21:57:05.757Z,10.05
2023-11-28T21:59:34.387Z,10.07
2023-11-28T22:02:01.504Z,10.10
2023-11-28T22:04:28.653Z,10.10
2023-11-28T22:06:56.030Z,10.08
2023-11-28T22:09:23.276Z,10.00
2023-11-28T22:11:50.508Z,10.00
2023-11-28T22:14:17.597Z,10.03
2023-11-28T22:16:46.086Z,9.98
2023-11-28T22:19:14.903Z,10.01
2023-11-28T22:21:42.013Z,9.93
2023-11-28T22:24:09.212Z,9.92
2023-11-28T22:26:41.115Z,9.93
2023-11-28T22:29:08.766Z,9.96
2023-11-28T22:31:36.115Z,9.94
2023-11-28T22:34:04.544Z,9.91
2023-11-28T22:36:31.695Z,9.91
2023-11-28T22:38:58.809Z,9.90
2023-11-28T22:41:25.903Z,9.91
2023-11-28T22:43:52.964Z,9.84
2023-11-28T22:46:20.069Z,9.84
2023-11-28T22:48:47.496Z,9.72
2023-11-28T22:51:16.479Z,9.76
2023-11-28T22:53:43.490Z,9.82
2023-11-28T22:56:10.674Z,9.72
2023-11-28T22:58:38.132Z,9.66
2023-11-28T23:01:05.341Z,9.64
2023-11-28T23:03:32.623Z,9.64
2023-11-28T23:06:00.031Z,9.60
2023-11-28T23:08:28.731Z,9.61
2023-11-28T23:10:55.995Z,9.61
2023-11-28T23:13:23.228Z,9.61
2023-11-28T23:15:50.521Z,9.61
2023-11-28T23:18:17.580Z,9.60
2023-11-28T23:20:44.725Z,9.59
2023-11-28T23:23:12.052Z,9.54
2023-11-28T23:25:40.638Z,9.56
2023-11-28T23:28:07.809Z,9.53
2023-11-28T23:30:35.309Z,9.52
2023-11-28T23:33:02.475Z,9.52
2023-11-28T23:35:29.579Z,9.54
2023-11-28T23:37:56.565Z,9.53
2023-11-28T23:40:23.677Z,9.52
2023-11-28T23:42:53.170Z,9.52
2023-11-28T23:45:20.420Z,9.49
2023-11-28T23:47:47.496Z,9.49
2023-11-28T23:50:14.666Z,9.44
2023-11-28T23:52:41.817Z,9.40
2023-11-28T23:55:09.179Z,9.40
2023-11-28T23:57:36.363Z,9.39
